sensor_id;sensor_type;location;lat;lon;timestamp;P1;P2;P0
61804;PMS7003;47725;47.912;7.356;2023-08-31T00:01:51;0.00;0.00;
61804;PMS7003;47725;47.912;7.356;2023-08-31T00:05:51;0.00;0.00;
61804;PMS7003;47725;47.912;7.356;2023-08-31T00:09:51;0.00;0.00;
61804;PMS7003;47725;47.912;7.356;2023-08-31T00:13:51;0.00;0.00;
61804;PMS7003;47725;47.912;7.356;2023-08-31T00:17:51;0.00;0.00;
61804;PMS7003;47725;47.912;7.356;2023-08-31T00:21:51;0.00;0.00;
61804;PMS7003;47725;47.912;7.356;2023-08-31T00:25:52;0.00;0.00;
61804;PMS7003;47725;47.912;7.356;2023-08-31T00:29:51;0.00;0.00;
61804;PMS7003;47725;47.912;7.356;2023-08-31T00:33:51;0.00;0.00;
61804;PMS7003;47725;47.912;7.356;2023-08-31T00:37:51;0.00;0.00;
61804;PMS7003;47725;47.912;7.356;2023-08-31T00:41:52;0.00;0.00;
61804;PMS7003;47725;47.912;7.356;2023-08-31T00:45:51;0.00;0.00;
61804;PMS7003;47725;47.912;7.356;2023-08-31T00:49:51;0.00;0.00;
61804;PMS7003;47725;47.912;7.356;2023-08-31T00:53:51;0.00;0.00;
61804;PMS7003;47725;47.912;7.356;2023-08-31T00:57:51;0.95;0.00;
61804;PMS7003;47725;47.912;7.356;2023-08-31T01:02:11;0.95;0.00;
61804;PMS7003;47725;47.912;7.356;2023-08-31T01:13:53;0.00;0.00;
61804;PMS7003;47725;47.912;7.356;2023-08-31T01:17:52;0.00;0.00;
61804;PMS7003;47725;47.912;7.356;2023-08-31T01:21:51;0.00;0.00;
61804;PMS7003;47725;47.912;7.356;2023-08-31T01:25:51;0.00;0.00;
61804;PMS7003;47725;47.912;7.356;2023-08-31T01:29:51;0.00;0.00;
61804;PMS7003;47725;47.912;7.356;2023-08-31T01:33:51;0.00;0.00;
61804;PMS7003;47725;47.912;7.356;2023-08-31T01:37:55;0.00;0.00;
61804;PMS7003;47725;47.912;7.356;2023-08-31T01:41:53;0.00;0.00;
61804;PMS7003;47725;47.912;7.356;2023-08-31T01:45:51;1.88;0.00;
61804;PMS7003;47725;47.912;7.356;2023-08-31T01:49:51;1.88;0.00;
61804;PMS7003;47725;47.912;7.356;2023-08-31T01:53:51;1.88;0.00;
61804;PMS7003;47725;47.912;7.356;2023-08-31T01:57:51;0.94;0.00;
61804;PMS7003;47725;47.912;7.356;2023-08-31T02:01:51;0.94;0.00;
61804;PMS7003;47725;47.912;7.356;2023-08-31T02:05:51;0.00;0.00;
61804;PMS7003;47725;47.912;7.356;2023-08-31T02:09:51;0.00;0.00;
61804;PMS7003;47725;47.912;7.356;2023-08-31T02:13:51;0.00;0.00;
61804;PMS7003;47725;47.912;7.356;2023-08-31T02:17:51;0.00;0.00;
61804;PMS7003;47725;47.912;7.356;2023-08-31T02:21:51;0.00;0.00;
61804;PMS7003;47725;47.912;7.356;2023-08-31T02:25:51;0.00;0.00;
61804;PMS7003;47725;47.912;7.356;2023-08-31T02:29:51;0.00;0.00;
61804;PMS7003;47725;47.912;7.356;2023-08-31T02:33:51;0.00;0.00;
61804;PMS7003;47725;47.912;7.356;2023-08-31T02:37:51;0.00;0.00;
61804;PMS7003;47725;47.912;7.356;2023-08-31T02:41:51;0.00;0.00;
61804;PMS7003;47725;47.912;7.356;2023-08-31T02:45:58;0.00;0.00;
61804;PMS7003;47725;47.912;7.356;2023-08-31T02:49:51;0.00;0.00;
61804;PMS7003;47725;47.912;7.356;2023-08-31T02:53:51;0.00;0.00;
61804;PMS7003;47725;47.912;7.356;2023-08-31T02:57:51;0.00;0.00;
61804;PMS7003;47725;47.912;7.356;2023-08-31T03:01:51;0.00;0.00;
61804;PMS7003;47725;47.912;7.356;2023-08-31T03:05:54;0.93;0.00;
61804;PMS7003;47725;47.912;7.356;2023-08-31T03:09:51;0.93;0.00;
61804;PMS7003;47725;47.912;7.356;2023-08-31T03:13:51;0.93;0.00;
61804;PMS7003;47725;47.912;7.356;2023-08-31T03:17:51;0.00;0.00;
61804;PMS7003;47725;47.912;7.356;2023-08-31T03:21:51;0.00;0.00;
61804;PMS7003;47725;47.912;7.356;2023-08-31T03:25:51;0.00;0.00;
61804;PMS7003;47725;47.912;7.356;2023-08-31T03:29:51;0.00;0.00;
61804;PMS7003;47725;47.912;7.356;2023-08-31T03:33:51;0.00;0.00;
61804;PMS7003;47725;47.912;7.356;2023-08-31T03:37:51;0.00;0.00;
61804;PMS7003;47725;47.912;7.356;2023-08-31T03:41:51;0.00;0.00;
61804;PMS7003;47725;47.912;7.356;2023-08-31T03:45:54;0.00;0.00;
61804;PMS7003;47725;47.912;7.356;2023-08-31T03:49:51;0.00;0.00;
61804;PMS7003;47725;47.912;7.356;2023-08-31T03:53:51;0.00;0.00;
61804;PMS7003;47725;47.912;7.356;2023-08-31T03:57:51;0.00;0.00;
61804;PMS7003;47725;47.912;7.356;2023-08-31T04:01:51;0.00;0.00;
61804;PMS7003;47725;47.912;7.356;2023-08-31T04:05:54;0.00;0.00;
61804;PMS7003;47725;47.912;7.356;2023-08-31T04:09:51;0.00;0.00;
61804;PMS7003;47725;47.912;7.356;2023-08-31T04:13:51;0.00;0.00;
61804;PMS7003;47725;47.912;7.356;2023-08-31T04:17:51;0.00;0.00;
61804;PMS7003;47725;47.912;7.356;2023-08-31T04:21:51;0.00;0.00;
61804;PMS7003;47725;47.912;7.356;2023-08-31T04:25:51;1.86;0.00;
61804;PMS7003;47725;47.912;7.356;2023-08-31T04:29:51;1.86;0.00;
61804;PMS7003;47725;47.912;7.356;2023-08-31T04:33:51;1.86;0.00;
61804;PMS7003;47725;47.912;7.356;2023-08-31T04:37:51;0.00;0.00;
61804;PMS7003;47725;47.912;7.356;2023-08-31T04:41:51;0.00;0.00;
61804;PMS7003;47725;47.912;7.356;2023-08-31T04:45:51;0.00;0.00;
61804;PMS7003;47725;47.912;7.356;2023-08-31T04:49:51;0.00;0.00;
61804;PMS7003;47725;47.912;7.356;2023-08-31T04:53:51;0.00;0.00;
61804;PMS7003;47725;47.912;7.356;2023-08-31T04:57:51;0.00;0.00;
61804;PMS7003;47725;47.912;7.356;2023-08-31T05:01:51;0.00;0.00;
61804;PMS7003;47725;47.912;7.356;2023-08-31T05:05:51;0.92;0.92;
61804;PMS7003;47725;47.912;7.356;2023-08-31T05:09:51;0.92;0.92;
61804;PMS7003;47725;47.912;7.356;2023-08-31T05:13:51;0.92;0.92;
61804;PMS7003;47725;47.912;7.356;2023-08-31T05:17:51;0.92;0.92;
61804;PMS7003;47725;47.912;7.356;2023-08-31T05:21:51;0.92;0.92;
61804;PMS7003;47725;47.912;7.356;2023-08-31T05:25:51;2.74;0.91;
61804;PMS7003;47725;47.912;7.356;2023-08-31T05:29:51;2.74;0.91;
61804;PMS7003;47725;47.912;7.356;2023-08-31T05:33:51;2.74;0.91;
61804;PMS7003;47725;47.912;7.356;2023-08-31T05:37:51;1.81;1.81;
61804;PMS7003;47725;47.912;7.356;2023-08-31T05:41:51;1.81;1.81;
61804;PMS7003;47725;47.912;7.356;2023-08-31T05:45:51;2.72;1.81;
61804;PMS7003;47725;47.912;7.356;2023-08-31T05:49:51;2.72;1.81;
61804;PMS7003;47725;47.912;7.356;2023-08-31T05:53:51;2.72;1.81;
61804;PMS7003;47725;47.912;7.356;2023-08-31T05:57:51;4.53;2.72;
61804;PMS7003;47725;47.912;7.356;2023-08-31T06:01:51;4.53;2.72;
61804;PMS7003;47725;47.912;7.356;2023-08-31T06:05:51;2.72;0.91;
61804;PMS7003;47725;47.912;7.356;2023-08-31T06:09:51;2.72;0.91;
61804;PMS7003;47725;47.912;7.356;2023-08-31T06:13:51;2.72;0.91;
61804;PMS7003;47725;47.912;7.356;2023-08-31T06:17:51;1.80;1.80;
61804;PMS7003;47725;47.912;7.356;2023-08-31T06:21:51;1.80;1.80;
61804;PMS7003;47725;47.912;7.356;2023-08-31T06:25:51;1.81;0.90;
61804;PMS7003;47725;47.912;7.356;2023-08-31T06:29:51;1.81;0.90;
61804;PMS7003;47725;47.912;7.356;2023-08-31T06:33:51;1.81;0.90;
61804;PMS7003;47725;47.912;7.356;2023-08-31T06:37:51;3.62;2.71;
61804;PMS7003;47725;47.912;7.356;2023-08-31T06:41:51;3.62;2.71;
61804;PMS7003;47725;47.912;7.356;2023-08-31T06:45:51;1.79;1.79;
61804;PMS7003;47725;47.912;7.356;2023-08-31T06:49:51;1.79;1.79;
61804;PMS7003;47725;47.912;7.356;2023-08-31T06:53:51;1.79;1.79;
61804;PMS7003;47725;47.912;7.356;2023-08-31T06:57:51;0.90;0.90;
61804;PMS7003;47725;47.912;7.356;2023-08-31T07:01:51;0.90;0.90;
61804;PMS7003;47725;47.912;7.356;2023-08-31T07:05:51;3.64;2.73;
61804;PMS7003;47725;47.912;7.356;2023-08-31T07:09:51;3.64;2.73;
61804;PMS7003;47725;47.912;7.356;2023-08-31T07:13:51;3.64;2.73;
61804;PMS7003;47725;47.912;7.356;2023-08-31T07:17:51;1.84;1.84;
61804;PMS7003;47725;47.912;7.356;2023-08-31T07:21:51;1.84;1.84;
61804;PMS7003;47725;47.912;7.356;2023-08-31T07:25:51;1.87;1.87;
61804;PMS7003;47725;47.912;7.356;2023-08-31T07:29:53;1.87;1.87;
61804;PMS7003;47725;47.912;7.356;2023-08-31T07:33:51;1.87;1.87;
61804;PMS7003;47725;47.912;7.356;2023-08-31T07:37:51;0.00;0.00;
61804;PMS7003;47725;47.912;7.356;2023-08-31T07:41:52;0.00;0.00;
61804;PMS7003;47725;47.912;7.356;2023-08-31T07:45:51;2.85;1.90;
61804;PMS7003;47725;47.912;7.356;2023-08-31T07:49:50;2.85;1.90;
61804;PMS7003;47725;47.912;7.356;2023-08-31T07:53:51;2.85;1.90;
61804;PMS7003;47725;47.912;7.356;2023-08-31T07:57:50;2.89;1.93;
61804;PMS7003;47725;47.912;7.356;2023-08-31T08:01:50;2.89;1.93;
61804;PMS7003;47725;47.912;7.356;2023-08-31T08:05:51;0.97;0.00;
61804;PMS7003;47725;47.912;7.356;2023-08-31T08:09:50;0.97;0.00;
61804;PMS7003;47725;47.912;7.356;2023-08-31T08:13:50;0.97;0.00;
61804;PMS7003;47725;47.912;7.356;2023-08-31T08:17:50;1.94;1.94;
61804;PMS7003;47725;47.912;7.356;2023-08-31T08:21:51;1.94;1.94;
61804;PMS7003;47725;47.912;7.356;2023-08-31T08:25:50;0.97;0.97;
61804;PMS7003;47725;47.912;7.356;2023-08-31T08:29:50;0.97;0.97;
61804;PMS7003;47725;47.912;7.356;2023-08-31T08:33:50;0.97;0.97;
61804;PMS7003;47725;47.912;7.356;2023-08-31T08:37:51;0.96;0.96;
61804;PMS7003;47725;47.912;7.356;2023-08-31T08:41:51;0.96;0.96;
61804;PMS7003;47725;47.912;7.356;2023-08-31T08:45:51;1.93;1.93;
61804;PMS7003;47725;47.912;7.356;2023-08-31T08:49:50;1.93;1.93;
61804;PMS7003;47725;47.912;7.356;2023-08-31T08:53:51;1.93;1.93;
61804;PMS7003;47725;47.912;7.356;2023-08-31T08:57:50;2.90;0.97;
61804;PMS7003;47725;47.912;7.356;2023-08-31T09:01:50;2.90;0.97;
61804;PMS7003;47725;47.912;7.356;2023-08-31T09:05:51;0.96;0.96;
61804;PMS7003;47725;47.912;7.356;2023-08-31T09:09:52;0.96;0.96;
61804;PMS7003;47725;47.912;7.356;2023-08-31T09:13:51;0.96;0.96;
61804;PMS7003;47725;47.912;7.356;2023-08-31T09:17:50;0.96;0.96;
61804;PMS7003;47725;47.912;7.356;2023-08-31T09:21:51;0.96;0.96;
61804;PMS7003;47725;47.912;7.356;2023-08-31T09:25:51;1.93;1.93;
61804;PMS7003;47725;47.912;7.356;2023-08-31T09:29:53;1.93;1.93;
61804;PMS7003;47725;47.912;7.356;2023-08-31T09:33:51;1.93;1.93;
61804;PMS7003;47725;47.912;7.356;2023-08-31T09:37:54;0.97;0.97;
61804;PMS7003;47725;47.912;7.356;2023-08-31T09:41:54;0.97;0.97;
61804;PMS7003;47725;47.912;7.356;2023-08-31T09:45:50;0.97;0.97;
61804;PMS7003;47725;47.912;7.356;2023-08-31T09:49:50;0.97;0.97;
61804;PMS7003;47725;47.912;7.356;2023-08-31T09:53:50;0.97;0.97;
61804;PMS7003;47725;47.912;7.356;2023-08-31T09:57:51;0.97;0.97;
61804;PMS7003;47725;47.912;7.356;2023-08-31T10:01:50;0.97;0.97;
61804;PMS7003;47725;47.912;7.356;2023-08-31T10:05:50;2.92;1.94;
61804;PMS7003;47725;47.912;7.356;2023-08-31T10:09:50;2.92;1.94;
61804;PMS7003;47725;47.912;7.356;2023-08-31T10:13:51;2.92;1.94;
61804;PMS7003;47725;47.912;7.356;2023-08-31T10:17:51;0.00;0.00;
61804;PMS7003;47725;47.912;7.356;2023-08-31T10:21:50;0.00;0.00;
61804;PMS7003;47725;47.912;7.356;2023-08-31T10:29:50;0.98;0.98;
61804;PMS7003;47725;47.912;7.356;2023-08-31T10:34:00;0.98;0.98;
61804;PMS7003;47725;47.912;7.356;2023-08-31T10:37:50;0.00;0.00;
61804;PMS7003;47725;47.912;7.356;2023-08-31T10:41:56;0.00;0.00;
61804;PMS7003;47725;47.912;7.356;2023-08-31T10:45:50;4.91;1.96;
61804;PMS7003;47725;47.912;7.356;2023-08-31T10:49:50;4.91;1.96;
61804;PMS7003;47725;47.912;7.356;2023-08-31T10:53:50;4.91;1.96;
61804;PMS7003;47725;47.912;7.356;2023-08-31T10:57:50;0.00;0.00;
61804;PMS7003;47725;47.912;7.356;2023-08-31T11:01:51;0.00;0.00;
61804;PMS7003;47725;47.912;7.356;2023-08-31T11:05:51;1.97;0.00;
61804;PMS7003;47725;47.912;7.356;2023-08-31T11:09:50;1.97;0.00;
61804;PMS7003;47725;47.912;7.356;2023-08-31T11:13:56;1.97;0.00;
61804;PMS7003;47725;47.912;7.356;2023-08-31T11:17:50;0.99;0.99;
61804;PMS7003;47725;47.912;7.356;2023-08-31T11:21:50;0.99;0.99;
61804;PMS7003;47725;47.912;7.356;2023-08-31T11:25:50;0.00;0.00;
61804;PMS7003;47725;47.912;7.356;2023-08-31T11:29:50;0.00;0.00;
61804;PMS7003;47725;47.912;7.356;2023-08-31T11:33:51;0.00;0.00;
61804;PMS7003;47725;47.912;7.356;2023-08-31T11:37:51;0.99;0.99;
61804;PMS7003;47725;47.912;7.356;2023-08-31T11:41:50;0.99;0.99;
61804;PMS7003;47725;47.912;7.356;2023-08-31T11:45:50;2.97;0.99;
61804;PMS7003;47725;47.912;7.356;2023-08-31T11:49:50;2.97;0.99;
61804;PMS7003;47725;47.912;7.356;2023-08-31T11:53:50;2.97;0.99;
61804;PMS7003;47725;47.912;7.356;2023-08-31T11:57:51;0.99;0.00;
61804;PMS7003;47725;47.912;7.356;2023-08-31T12:01:50;0.99;0.00;
61804;PMS7003;47725;47.912;7.356;2023-08-31T12:05:51;1.98;1.98;
61804;PMS7003;47725;47.912;7.356;2023-08-31T12:09:50;1.98;1.98;
61804;PMS7003;47725;47.912;7.356;2023-08-31T12:13:50;1.98;1.98;
61804;PMS7003;47725;47.912;7.356;2023-08-31T12:17:50;1.99;0.99;
61804;PMS7003;47725;47.912;7.356;2023-08-31T12:21:50;1.99;0.99;
61804;PMS7003;47725;47.912;7.356;2023-08-31T12:25:51;2.98;0.00;
61804;PMS7003;47725;47.912;7.356;2023-08-31T12:29:50;2.98;0.00;
61804;PMS7003;47725;47.912;7.356;2023-08-31T12:33:50;2.98;0.00;
61804;PMS7003;47725;47.912;7.356;2023-08-31T12:37:50;0.00;0.00;
61804;PMS7003;47725;47.912;7.356;2023-08-31T12:41:50;0.00;0.00;
61804;PMS7003;47725;47.912;7.356;2023-08-31T12:45:50;0.99;0.99;
61804;PMS7003;47725;47.912;7.356;2023-08-31T12:49:50;0.99;0.99;
61804;PMS7003;47725;47.912;7.356;2023-08-31T12:53:50;0.99;0.99;
61804;PMS7003;47725;47.912;7.356;2023-08-31T12:57:50;0.99;0.99;
61804;PMS7003;47725;47.912;7.356;2023-08-31T13:01:50;0.99;0.99;
61804;PMS7003;47725;47.912;7.356;2023-08-31T13:05:50;2.98;0.00;
61804;PMS7003;47725;47.912;7.356;2023-08-31T13:09:50;2.98;0.00;
61804;PMS7003;47725;47.912;7.356;2023-08-31T13:13:50;2.98;0.00;
61804;PMS7003;47725;47.912;7.356;2023-08-31T13:17:50;1.99;1.99;
61804;PMS7003;47725;47.912;7.356;2023-08-31T13:21:50;1.99;1.99;
61804;PMS7003;47725;47.912;7.356;2023-08-31T13:25:50;1.99;1.99;
61804;PMS7003;47725;47.912;7.356;2023-08-31T13:29:50;1.99;1.99;
61804;PMS7003;47725;47.912;7.356;2023-08-31T13:33:50;1.99;1.99;
61804;PMS7003;47725;47.912;7.356;2023-08-31T13:37:50;1.99;1.99;
61804;PMS7003;47725;47.912;7.356;2023-08-31T13:41:50;1.99;1.99;
61804;PMS7003;47725;47.912;7.356;2023-08-31T13:45:50;1.99;1.99;
61804;PMS7003;47725;47.912;7.356;2023-08-31T13:49:50;1.99;1.99;
61804;PMS7003;47725;47.912;7.356;2023-08-31T13:53:50;1.99;1.99;
61804;PMS7003;47725;47.912;7.356;2023-08-31T13:57:50;1.99;1.99;
61804;PMS7003;47725;47.912;7.356;2023-08-31T14:01:50;1.99;1.99;
61804;PMS7003;47725;47.912;7.356;2023-08-31T14:05:50;1.99;1.00;
61804;PMS7003;47725;47.912;7.356;2023-08-31T14:09:50;1.99;1.00;
61804;PMS7003;47725;47.912;7.356;2023-08-31T14:13:50;1.99;1.00;
61804;PMS7003;47725;47.912;7.356;2023-08-31T14:17:50;1.99;0.00;
61804;PMS7003;47725;47.912;7.356;2023-08-31T14:21:50;1.99;0.00;
61804;PMS7003;47725;47.912;7.356;2023-08-31T14:25:50;1.99;1.99;
61804;PMS7003;47725;47.912;7.356;2023-08-31T14:29:50;1.99;1.99;
61804;PMS7003;47725;47.912;7.356;2023-08-31T14:33:50;1.99;1.99;
61804;PMS7003;47725;47.912;7.356;2023-08-31T14:37:50;1.00;1.00;
61804;PMS7003;47725;47.912;7.356;2023-08-31T14:41:50;1.00;1.00;
61804;PMS7003;47725;47.912;7.356;2023-08-31T14:45:50;1.00;1.00;
61804;PMS7003;47725;47.912;7.356;2023-08-31T14:49:50;1.00;1.00;
61804;PMS7003;47725;47.912;7.356;2023-08-31T14:53:50;1.00;1.00;
61804;PMS7003;47725;47.912;7.356;2023-08-31T14:57:50;1.00;1.00;
61804;PMS7003;47725;47.912;7.356;2023-08-31T15:01:50;1.00;1.00;
61804;PMS7003;47725;47.912;7.356;2023-08-31T15:05:50;1.99;0.99;
61804;PMS7003;47725;47.912;7.356;2023-08-31T15:09:51;1.99;0.99;
61804;PMS7003;47725;47.912;7.356;2023-08-31T15:13:50;1.99;0.99;
61804;PMS7003;47725;47.912;7.356;2023-08-31T15:17:50;2.99;1.00;
61804;PMS7003;47725;47.912;7.356;2023-08-31T15:21:50;2.99;1.00;
61804;PMS7003;47725;47.912;7.356;2023-08-31T15:25:50;1.00;1.00;
61804;PMS7003;47725;47.912;7.356;2023-08-31T15:29:50;1.00;1.00;
61804;PMS7003;47725;47.912;7.356;2023-08-31T15:33:50;1.00;1.00;
61804;PMS7003;47725;47.912;7.356;2023-08-31T15:37:50;1.00;1.00;
61804;PMS7003;47725;47.912;7.356;2023-08-31T15:41:50;1.00;1.00;
61804;PMS7003;47725;47.912;7.356;2023-08-31T15:45:50;0.00;0.00;
61804;PMS7003;47725;47.912;7.356;2023-08-31T15:49:50;0.00;0.00;
61804;PMS7003;47725;47.912;7.356;2023-08-31T15:53:50;0.00;0.00;
61804;PMS7003;47725;47.912;7.356;2023-08-31T15:57:50;0.00;0.00;
61804;PMS7003;47725;47.912;7.356;2023-08-31T16:01:50;0.00;0.00;
61804;PMS7003;47725;47.912;7.356;2023-08-31T16:05:50;1.99;1.00;
61804;PMS7003;47725;47.912;7.356;2023-08-31T16:09:50;1.99;1.00;
61804;PMS7003;47725;47.912;7.356;2023-08-31T16:13:50;1.99;1.00;
61804;PMS7003;47725;47.912;7.356;2023-08-31T16:17:50;0.99;0.99;
61804;PMS7003;47725;47.912;7.356;2023-08-31T16:21:50;0.99;0.99;
61804;PMS7003;47725;47.912;7.356;2023-08-31T16:25:50;0.99;0.99;
61804;PMS7003;47725;47.912;7.356;2023-08-31T16:29:50;0.99;0.99;
61804;PMS7003;47725;47.912;7.356;2023-08-31T16:33:50;0.99;0.99;
61804;PMS7003;47725;47.912;7.356;2023-08-31T16:37:50;0.00;0.00;
61804;PMS7003;47725;47.912;7.356;2023-08-31T16:41:50;0.00;0.00;
61804;PMS7003;47725;47.912;7.356;2023-08-31T16:45:50;0.00;0.00;
61804;PMS7003;47725;47.912;7.356;2023-08-31T16:49:50;0.00;0.00;
61804;PMS7003;47725;47.912;7.356;2023-08-31T16:53:50;0.00;0.00;
61804;PMS7003;47725;47.912;7.356;2023-08-31T16:57:50;0.00;0.00;
61804;PMS7003;47725;47.912;7.356;2023-08-31T17:01:50;0.00;0.00;
61804;PMS7003;47725;47.912;7.356;2023-08-31T17:05:51;0.00;0.00;
61804;PMS7003;47725;47.912;7.356;2023-08-31T17:09:50;0.00;0.00;
61804;PMS7003;47725;47.912;7.356;2023-08-31T17:13:50;0.00;0.00;
61804;PMS7003;47725;47.912;7.356;2023-08-31T17:17:50;0.99;0.99;
61804;PMS7003;47725;47.912;7.356;2023-08-31T17:21:50;0.99;0.99;
61804;PMS7003;47725;47.912;7.356;2023-08-31T17:25:50;0.00;0.00;
61804;PMS7003;47725;47.912;7.356;2023-08-31T17:29:50;0.00;0.00;
61804;PMS7003;47725;47.912;7.356;2023-08-31T17:33:51;0.00;0.00;
61804;PMS7003;47725;47.912;7.356;2023-08-31T17:37:50;0.00;0.00;
61804;PMS7003;47725;47.912;7.356;2023-08-31T17:41:50;0.00;0.00;
61804;PMS7003;47725;47.912;7.356;2023-08-31T17:45:50;0.00;0.00;
61804;PMS7003;47725;47.912;7.356;2023-08-31T17:49:50;0.00;0.00;
61804;PMS7003;47725;47.912;7.356;2023-08-31T17:53:50;0.00;0.00;
61804;PMS7003;47725;47.912;7.356;2023-08-31T17:57:50;1.98;0.00;
61804;PMS7003;47725;47.912;7.356;2023-08-31T18:01:50;1.98;0.00;
61804;PMS7003;47725;47.912;7.356;2023-08-31T18:05:50;1.98;0.99;
61804;PMS7003;47725;47.912;7.356;2023-08-31T18:09:50;1.98;0.99;
61804;PMS7003;47725;47.912;7.356;2023-08-31T18:13:50;1.98;0.99;
61804;PMS7003;47725;47.912;7.356;2023-08-31T18:17:50;0.99;0.99;
61804;PMS7003;47725;47.912;7.356;2023-08-31T18:21:50;0.99;0.99;
61804;PMS7003;47725;47.912;7.356;2023-08-31T18:25:50;0.00;0.00;
61804;PMS7003;47725;47.912;7.356;2023-08-31T18:29:50;0.00;0.00;
61804;PMS7003;47725;47.912;7.356;2023-08-31T18:33:50;0.00;0.00;
61804;PMS7003;47725;47.912;7.356;2023-08-31T18:37:50;0.99;0.99;
61804;PMS7003;47725;47.912;7.356;2023-08-31T18:41:50;0.99;0.99;
61804;PMS7003;47725;47.912;7.356;2023-08-31T18:45:50;0.00;0.00;
61804;PMS7003;47725;47.912;7.356;2023-08-31T18:49:50;0.00;0.00;
61804;PMS7003;47725;47.912;7.356;2023-08-31T18:53:50;0.00;0.00;
61804;PMS7003;47725;47.912;7.356;2023-08-31T18:57:50;1.98;0.99;
61804;PMS7003;47725;47.912;7.356;2023-08-31T19:01:50;1.98;0.99;
61804;PMS7003;47725;47.912;7.356;2023-08-31T19:05:50;1.97;1.97;
61804;PMS7003;47725;47.912;7.356;2023-08-31T19:09:51;1.97;1.97;
61804;PMS7003;47725;47.912;7.356;2023-08-31T19:13:50;1.97;1.97;
61804;PMS7003;47725;47.912;7.356;2023-08-31T19:17:52;1.97;0.99;
61804;PMS7003;47725;47.912;7.356;2023-08-31T19:21:50;1.97;0.99;
61804;PMS7003;47725;47.912;7.356;2023-08-31T19:25:50;1.97;1.97;
61804;PMS7003;47725;47.912;7.356;2023-08-31T19:29:50;1.97;1.97;
61804;PMS7003;47725;47.912;7.356;2023-08-31T19:33:51;1.97;1.97;
61804;PMS7003;47725;47.912;7.356;2023-08-31T19:37:50;0.99;0.99;
61804;PMS7003;47725;47.912;7.356;2023-08-31T19:41:50;0.99;0.99;
61804;PMS7003;47725;47.912;7.356;2023-08-31T19:45:50;2.97;1.98;
61804;PMS7003;47725;47.912;7.356;2023-08-31T19:49:50;2.97;1.98;
61804;PMS7003;47725;47.912;7.356;2023-08-31T19:53:50;2.97;1.98;
61804;PMS7003;47725;47.912;7.356;2023-08-31T19:57:50;0.00;0.00;
61804;PMS7003;47725;47.912;7.356;2023-08-31T20:01:50;0.00;0.00;
61804;PMS7003;47725;47.912;7.356;2023-08-31T20:05:50;0.99;0.00;
61804;PMS7003;47725;47.912;7.356;2023-08-31T20:09:50;0.99;0.00;
61804;PMS7003;47725;47.912;7.356;2023-08-31T20:13:50;0.99;0.00;
61804;PMS7003;47725;47.912;7.356;2023-08-31T20:17:50;0.99;0.99;
61804;PMS7003;47725;47.912;7.356;2023-08-31T20:21:50;0.99;0.99;
61804;PMS7003;47725;47.912;7.356;2023-08-31T20:25:50;0.99;0.99;
61804;PMS7003;47725;47.912;7.356;2023-08-31T20:29:50;0.99;0.99;
61804;PMS7003;47725;47.912;7.356;2023-08-31T20:33:50;0.99;0.99;
61804;PMS7003;47725;47.912;7.356;2023-08-31T20:37:50;0.00;0.00;
61804;PMS7003;47725;47.912;7.356;2023-08-31T20:41:50;0.00;0.00;
61804;PMS7003;47725;47.912;7.356;2023-08-31T20:45:50;1.97;0.00;
61804;PMS7003;47725;47.912;7.356;2023-08-31T20:49:50;1.97;0.00;
61804;PMS7003;47725;47.912;7.356;2023-08-31T20:53:50;1.97;0.00;
61804;PMS7003;47725;47.912;7.356;2023-08-31T20:57:50;0.99;0.99;
61804;PMS7003;47725;47.912;7.356;2023-08-31T21:01:50;0.99;0.99;
61804;PMS7003;47725;47.912;7.356;2023-08-31T21:05:50;2.96;0.99;
61804;PMS7003;47725;47.912;7.356;2023-08-31T21:09:50;2.96;0.99;
61804;PMS7003;47725;47.912;7.356;2023-08-31T21:13:50;2.96;0.99;
61804;PMS7003;47725;47.912;7.356;2023-08-31T21:17:50;1.97;1.97;
61804;PMS7003;47725;47.912;7.356;2023-08-31T21:21:50;1.97;1.97;
61804;PMS7003;47725;47.912;7.356;2023-08-31T21:25:50;0.98;0.98;
61804;PMS7003;47725;47.912;7.356;2023-08-31T21:29:50;0.98;0.98;
61804;PMS7003;47725;47.912;7.356;2023-08-31T21:33:50;0.98;0.98;
61804;PMS7003;47725;47.912;7.356;2023-08-31T21:37:50;2.95;0.98;
61804;PMS7003;47725;47.912;7.356;2023-08-31T21:41:50;2.95;0.98;
61804;PMS7003;47725;47.912;7.356;2023-08-31T21:45:50;0.98;0.98;
61804;PMS7003;47725;47.912;7.356;2023-08-31T21:49:50;0.98;0.98;
61804;PMS7003;47725;47.912;7.356;2023-08-31T21:53:50;0.98;0.98;
61804;PMS7003;47725;47.912;7.356;2023-08-31T21:57:50;0.98;0.98;
61804;PMS7003;47725;47.912;7.356;2023-08-31T22:01:50;0.98;0.98;
61804;PMS7003;47725;47.912;7.356;2023-08-31T22:05:50;1.97;0.98;
61804;PMS7003;47725;47.912;7.356;2023-08-31T22:09:50;1.97;0.98;
61804;PMS7003;47725;47.912;7.356;2023-08-31T22:13:50;1.97;0.98;
61804;PMS7003;47725;47.912;7.356;2023-08-31T22:17:51;0.98;0.98;
61804;PMS7003;47725;47.912;7.356;2023-08-31T22:21:50;0.98;0.98;
61804;PMS7003;47725;47.912;7.356;2023-08-31T22:25:50;0.98;0.98;
61804;PMS7003;47725;47.912;7.356;2023-08-31T22:29:50;0.98;0.98;
61804;PMS7003;47725;47.912;7.356;2023-08-31T22:33:50;0.98;0.98;
61804;PMS7003;47725;47.912;7.356;2023-08-31T22:37:50;0.98;0.98;
61804;PMS7003;47725;47.912;7.356;2023-08-31T22:41:50;0.98;0.98;
61804;PMS7003;47725;47.912;7.356;2023-08-31T22:45:56;2.95;1.96;
61804;PMS7003;47725;47.912;7.356;2023-08-31T22:49:53;2.95;1.96;
61804;PMS7003;47725;47.912;7.356;2023-08-31T22:53:50;2.95;1.96;
61804;PMS7003;47725;47.912;7.356;2023-08-31T22:57:50;0.00;0.00;
61804;PMS7003;47725;47.912;7.356;2023-08-31T23:01:50;0.00;0.00;
61804;PMS7003;47725;47.912;7.356;2023-08-31T23:05:50;0.98;0.98;
61804;PMS7003;47725;47.912;7.356;2023-08-31T23:09:50;0.98;0.98;
61804;PMS7003;47725;47.912;7.356;2023-08-31T23:13:50;0.98;0.98;
61804;PMS7003;47725;47.912;7.356;2023-08-31T23:17:50;0.00;0.00;
61804;PMS7003;47725;47.912;7.356;2023-08-31T23:21:50;0.00;0.00;
61804;PMS7003;47725;47.912;7.356;2023-08-31T23:25:50;0.98;0.98;
61804;PMS7003;47725;47.912;7.356;2023-08-31T23:29:50;0.98;0.98;
61804;PMS7003;47725;47.912;7.356;2023-08-31T23:33:50;0.98;0.98;
61804;PMS7003;47725;47.912;7.356;2023-08-31T23:37:50;0.98;0.98;
61804;PMS7003;47725;47.912;7.356;2023-08-31T23:41:50;0.98;0.98;
61804;PMS7003;47725;47.912;7.356;2023-08-31T23:45:50;0.98;0.98;
61804;PMS7003;47725;47.912;7.356;2023-08-31T23:49:50;0.98;0.98;
61804;PMS7003;47725;47.912;7.356;2023-08-31T23:53:50;0.98;0.98;
61804;PMS7003;47725;47.912;7.356;2023-08-31T23:57:50;1.95;0.98;
